Lansdowne House Airport
CYLH : now visible

Airfield :











YOU CAN JOIN US ON...

 
LOGIN :

Register | Disclaimer

   EN    FR    IT 

 









Legend :    VFR   Marginal VFR   IFR   Intensive IFR   Very Intensive IFR
Visi :
Ceiling :
>= 8 km
>= 3000ft
5 to 8 km
1000 to 3000 ft
1500m to 5 km
500 to 1000 ft
800 to 1500m
200 to 500 ft
< 800m
< 200 ft
Symbols :   Thunderstorms  Fog  Heavy snow  Heavy precipitations  Wind > 20 kt






- Airport Elevation : 834 ft
- IATA code : YLH


CYLH - Lansdowne House

CURRENT METAR :
  • 071100Z AUTO 32006KT 280V360 5SM -SN BKN011 OVC030 M01/M01 A2997 RMK SLP167

EXPIRED METARs :
  • 071048Z AUTO 30004KT 270V010 3SM -SN BKN011 OVC040 M01/M01 A2997 RMK SLP167
  • 071038Z AUTO 30005KT 260V330 4SM -SN FEW011 SCT016 OVC040 M01/M01 A2997 RMK SLP167
  • 071022Z AUTO 29005KT 260V360 3SM -SN BKN013 OVC036 M01/M01 A2997 RMK SLP166
  • 071012Z AUTO 31004KT 270V350 2 1/2SM -SN SCT009 BKN015 OVC038 M01/M01 A2997 RMK SLP166
  • 071005Z AUTO 30005KT 260V340 2 1/2SM -SN FEW009 SCT015 OVC036 M01/M01 A2997 RMK SLP165
  • 070950Z AUTO 31005KT 270V350 3SM -SN SCT009 OVC040 M01/M01 A2997 RMK SLP165
  • 070937Z AUTO 30004KT 260V340 2 1/2SM -SN SCT009 OVC042 M01/M01 A2996 RMK SLP164
  • 070924Z AUTO 29004KT 260V020 5SM -SN BKN011 BKN016 OVC050 M01/M01 A2996 RMK SLP163
  • 070901Z AUTO 31003KT 270V340 6SM -SN BKN011 BKN034 BKN044 OVC071 M01/M01 A2996 RMK SLP163
  • 070842Z AUTO 31004KT 240V030 2 1/4SM -SN BKN011 OVC048 M01/M01 A2996 RMK SLP161
  • 070838Z AUTO 31004KT 270V360 5SM -SN OVC011 M01/M01 A2996 RMK SLP161
  • 070824Z AUTO 30005KT 260V350 6SM -SN BKN011 OVC048 M00/M01 A2996 RMK SLP161
  • 070819Z AUTO 32005KT 270V350 3SM -SN BKN011 OVC015 M00/M01 A2996 RMK SLP161
  • 070810Z AUTO 30005KT 250V010 5SM -SN BKN009 OVC017 M00/M01 A2996 RMK SLP161

TAF N/A
CZWG FIR / North America



MET'MAP, your aeronautical weather chart ! - Copyright ORBIFLY December 2007 - Disclaimer

ORBIFLY MET'MAP TEAM :

Programming & Development : Alexandra Zaïnal
Concept & original design : Baudouin d'Aumeries
Assistance for programming : Marc-Olivier Méhu
Technical & hardware support : Manuel Goepfert

Contact : metmap@orbifly.com




SOURCES & CREDITS :

   NOAA       Earth
Advisory